Time;durP1;ratioP1;P1;durP2;ratioP2;P2;SDS_P1;SDS_P2;PMS_P1;PMS_P2;Temp;Humidity;BMP_temperature;BMP_pressure;BME280_temperature;BME280_humidity;BME280_pressure;Samples;Min_cycle;Max_cycle;Signal;HPM_P1;HPM_P2
2023/08/17 00:01:55;;;;;;;7.18;4.50;;;;;;;25.09;62.07;99788.09;5142673;27;20035;-65
2023/08/17 00:04:20;;;;;;;6.25;4.80;;;;;;;24.71;63.95;99784.38;5142769;27;20050;-65
2023/08/17 00:06:46;;;;;;;7.68;4.88;;;;;;;24.52;65.06;99783.06;5141960;27;20038;-65
2023/08/17 00:09:12;;;;;;;8.95;5.30;;;;;;;24.33;65.97;99781.75;5141542;27;20031;-65
2023/08/17 00:11:38;;;;;;;5.85;5.00;;;;;;;24.35;66.45;99785.84;5142067;27;20026;-64
2023/08/17 00:14:04;;;;;;;7.65;4.28;;;;;;;24.39;66.30;99786.97;5141961;27;20299;-65
2023/08/17 00:16:31;;;;;;;7.03;5.18;;;;;;;24.36;66.17;99792.06;5142260;27;20440;-64
2023/08/17 00:18:57;;;;;;;6.65;4.47;;;;;;;24.24;67.17;99792.16;5141307;27;20061;-64
2023/08/17 00:21:22;;;;;;;8.02;4.72;;;;;;;24.05;68.23;99788.09;5142410;27;20039;-65
2023/08/17 00:23:48;;;;;;;7.03;4.85;;;;;;;24.15;68.04;99791.78;5142687;27;20073;-65
2023/08/17 00:26:14;;;;;;;8.35;5.07;;;;;;;24.17;67.89;99776.09;5142218;27;20027;-64
2023/08/17 00:28:39;;;;;;;7.15;5.22;;;;;;;24.22;68.12;99785.34;5142553;27;20285;-65
2023/08/17 00:31:05;;;;;;;7.00;4.95;;;;;;;24.30;67.97;99779.53;5142398;27;20042;-65
2023/08/17 00:33:30;;;;;;;5.72;4.60;;;;;;;24.32;67.35;99783.63;5142172;27;20091;-65
2023/08/17 00:35:55;;;;;;;6.88;4.68;;;;;;;24.37;67.36;99777.47;5142301;27;20027;-65
2023/08/17 00:38:21;;;;;;;7.38;4.82;;;;;;;24.43;67.11;99773.75;5141607;27;20039;-65
2023/08/17 00:40:47;;;;;;;6.53;4.78;;;;;;;24.39;66.69;99770.75;5141759;27;20039;-66
2023/08/17 00:43:12;;;;;;;10.60;5.28;;;;;;;24.36;66.01;99773.94;5142533;27;20038;-64
2023/08/17 00:45:38;;;;;;;5.60;4.97;;;;;;;24.19;66.84;99776.69;5141981;27;20031;-65
2023/08/17 00:48:07;;;;;;;7.13;5.35;;;;;;;23.95;67.88;99774.44;5141934;27;20078;-65
2023/08/17 00:50:34;;;;;;;7.75;5.63;;;;;;;23.95;67.51;99775.25;5142538;27;20320;-65
2023/08/17 00:53:00;;;;;;;9.15;5.38;;;;;;;23.97;67.17;99769.59;5142026;27;20205;-65
2023/08/17 00:55:26;;;;;;;9.23;5.22;;;;;;;23.99;67.98;99775.56;5142103;27;20050;-65
2023/08/17 00:57:53;;;;;;;8.40;5.55;;;;;;;23.91;67.03;99774.09;5141583;27;20108;-64
2023/08/17 01:00:20;;;;;;;6.28;4.75;;;;;;;23.88;66.75;99774.56;5141803;27;20039;-65
2023/08/17 01:02:46;;;;;;;7.40;5.05;;;;;;;23.86;67.98;99766.72;5141193;27;20340;-64
2023/08/17 01:05:12;;;;;;;6.93;4.85;;;;;;;23.85;67.27;99772.38;5140528;27;20039;-64
2023/08/17 01:07:38;;;;;;;7.57;5.22;;;;;;;23.82;67.12;99773.69;5140689;27;20359;-64
2023/08/17 01:10:06;;;;;;;8.02;5.15;;;;;;;23.83;68.25;99772.63;5141664;27;20039;-65
2023/08/17 01:12:36;;;;;;;5.43;4.78;;;;;;;23.57;68.20;99770.59;5141142;27;20330;-64
2023/08/17 01:15:14;;;;;;;7.20;4.72;;;;;;;23.20;70.00;99770.22;5141493;27;20039;-64
2023/08/17 01:17:43;;;;;;;8.48;4.97;;;;;;;23.21;70.51;99766.47;5140611;27;20372;-65
2023/08/17 01:20:12;;;;;;;7.50;6.30;;;;;;;23.29;70.71;99757.94;5141661;27;20031;-65
2023/08/17 01:22:40;;;;;;;5.68;4.88;;;;;;;23.42;70.15;99763.03;5140965;27;20047;-64
2023/08/17 01:25:06;;;;;;;5.32;4.78;;;;;;;23.50;69.75;99770.72;5140389;27;20043;-65
2023/08/17 01:27:39;;;;;;;6.53;4.57;;;;;;;23.51;69.10;99769.66;5140940;27;20084;-64
2023/08/17 01:30:05;;;;;;;5.15;4.45;;;;;;;23.58;69.13;99761.41;5140797;27;20355;-64
2023/08/17 01:32:39;;;;;;;7.70;5.55;;;;;;;23.55;69.53;99767.31;5140977;27;20143;-65
2023/08/17 01:35:16;;;;;;;6.47;5.13;;;;;;;23.46;70.01;99766.88;5140958;27;20122;-65
2023/08/17 01:37:42;;;;;;;7.35;5.72;;;;;;;23.53;70.72;99770.25;5140195;27;20042;-65
2023/08/17 01:40:09;;;;;;;8.77;6.05;;;;;;;23.43;71.10;99770.06;5141081;27;20046;-65
2023/08/17 01:42:36;;;;;;;11.30;6.95;;;;;;;23.38;72.43;99769.16;5140400;27;20283;-64
2023/08/17 01:45:02;;;;;;;6.68;5.72;;;;;;;23.39;72.95;99771.63;5140462;27;20063;-65
2023/08/17 01:47:27;;;;;;;6.28;5.30;;;;;;;23.33;73.30;99766.38;5140329;27;20043;-64
2023/08/17 01:49:52;;;;;;;7.40;5.43;;;;;;;23.25;74.11;99764.91;5140613;27;20039;-65
2023/08/17 01:52:18;;;;;;;7.28;5.70;;;;;;;23.18;74.34;99765.06;5139313;27;20061;-65
2023/08/17 01:54:43;;;;;;;9.20;6.80;;;;;;;23.05;74.76;99767.25;5140228;27;20042;-65
2023/08/17 01:57:09;;;;;;;10.80;6.20;;;;;;;23.01;75.21;99768.78;5140300;27;20115;-64
2023/08/17 01:59:34;;;;;;;10.40;7.05;;;;;;;23.03;75.37;99767.50;5140581;27;20027;-64
2023/08/17 02:01:59;;;;;;;11.27;7.32;;;;;;;22.77;77.38;99774.25;5140477;27;20064;-64
2023/08/17 02:04:25;;;;;;;11.93;8.80;;;;;;;22.97;76.95;99763.06;5140593;27;20023;-64
2023/08/17 02:06:51;;;;;;;13.13;9.65;;;;;;;23.08;76.73;99758.66;5139511;27;20067;-65
2023/08/17 02:09:16;;;;;;;11.77;9.95;;;;;;;23.07;76.84;99754.31;5139203;27;20031;-65
2023/08/17 02:11:41;;;;;;;13.93;10.30;;;;;;;23.08;77.06;99751.38;5140527;27;20026;-65
2023/08/17 02:14:07;;;;;;;16.20;9.52;;;;;;;23.08;77.38;99743.28;5139576;27;20091;-65
2023/08/17 02:16:32;;;;;;;10.30;8.35;;;;;;;23.16;76.81;99752.88;5140232;27;20057;-64
2023/08/17 02:18:58;;;;;;;11.73;9.23;;;;;;;23.13;76.69;99751.47;5139716;27;20046;-65
2023/08/17 02:21:23;;;;;;;12.32;8.50;;;;;;;23.08;76.81;99737.06;5139789;27;20039;-65
2023/08/17 02:23:48;;;;;;;11.00;8.98;;;;;;;22.99;76.99;99749.31;5140021;27;20039;-65
2023/08/17 02:26:14;;;;;;;13.25;8.43;;;;;;;22.93;77.37;99746.53;5121938;27;20043;-65
2023/08/17 02:28:39;;;;;;;16.38;8.73;;;;;;;22.95;77.64;99748.16;5140023;27;20039;-65
2023/08/17 02:31:06;;;;;;;14.55;8.07;;;;;;;22.98;77.92;99743.09;5139426;27;20104;-65
2023/08/17 02:33:33;;;;;;;10.25;7.95;;;;;;;23.04;77.48;99744.00;5139782;27;20371;-65
2023/08/17 02:35:58;;;;;;;10.10;7.82;;;;;;;23.12;76.99;99746.31;5139585;27;20095;-65
2023/08/17 02:38:24;;;;;;;11.13;7.57;;;;;;;23.19;76.72;99752.38;5139424;27;20039;-65
2023/08/17 02:40:50;;;;;;;9.00;7.72;;;;;;;23.25;76.49;99741.41;5139761;27;20039;-64
2023/08/17 02:43:15;;;;;;;11.07;8.45;;;;;;;23.29;76.05;99755.25;5139893;27;20045;-65
2023/08/17 02:45:40;;;;;;;9.70;7.45;;;;;;;23.37;75.54;99754.84;5139548;27;20057;-65
2023/08/17 02:48:06;;;;;;;11.77;7.97;;;;;;;23.35;75.53;99754.28;5139843;27;20053;-64
2023/08/17 02:50:31;;;;;;;10.60;7.47;;;;;;;23.27;75.32;99760.06;5139728;27;20035;-64
2023/08/17 02:52:57;;;;;;;10.82;7.28;;;;;;;23.20;75.34;99762.13;5139403;27;20065;-65
2023/08/17 02:55:22;;;;;;;9.50;7.07;;;;;;;23.19;74.71;99761.31;5139731;27;20031;-64
2023/08/17 02:57:48;;;;;;;9.55;6.82;;;;;;;23.14;74.65;99760.38;5139036;27;20043;-65
2023/08/17 03:00:13;;;;;;;11.27;6.60;;;;;;;23.10;74.29;99759.25;5139516;27;20031;-65
2023/08/17 03:02:39;;;;;;;9.02;6.40;;;;;;;23.02;74.13;99765.03;5138555;27;20229;-65
2023/08/17 03:05:05;;;;;;;11.00;6.78;;;;;;;22.96;74.67;99761.44;5139483;27;20039;-65
2023/08/17 03:07:30;;;;;;;8.27;6.43;;;;;;;22.96;74.46;99763.31;5138816;27;20039;-64
2023/08/17 03:09:55;;;;;;;9.23;5.93;;;;;;;23.00;74.61;99767.16;5138768;27;20035;-65
2023/08/17 03:12:21;;;;;;;9.40;5.78;;;;;;;23.07;74.58;99762.44;5139178;27;20039;-64
2023/08/17 03:14:46;;;;;;;13.07;6.10;;;;;;;23.09;74.23;99761.13;5139406;27;20039;-64
2023/08/17 03:17:12;;;;;;;13.38;6.50;;;;;;;23.13;74.07;99764.97;5138813;27;20045;-65
2023/08/17 03:19:37;;;;;;;10.77;5.85;;;;;;;23.12;74.36;99762.50;5139731;27;20041;-64
2023/08/17 03:22:02;;;;;;;7.60;5.82;;;;;;;23.13;74.21;99767.69;5139208;27;20031;-64
2023/08/17 03:24:28;;;;;;;8.73;5.90;;;;;;;23.20;73.79;99773.75;5139438;27;20061;-65
2023/08/17 03:26:53;;;;;;;7.28;5.70;;;;;;;23.18;73.60;99781.28;5138928;27;20039;-65
2023/08/17 03:29:19;;;;;;;10.10;5.90;;;;;;;23.20;73.65;99778.31;5138632;27;20035;-65
2023/08/17 03:31:44;;;;;;;10.70;6.47;;;;;;;23.16;73.81;99772.59;5139355;27;20272;-65
2023/08/17 03:34:10;;;;;;;13.85;6.13;;;;;;;23.15;74.01;99781.75;5138738;27;20033;-64
2023/08/17 03:36:35;;;;;;;11.68;6.63;;;;;;;23.06;74.08;99775.09;5138903;27;20064;-66
2023/08/17 03:39:00;;;;;;;9.23;6.22;;;;;;;22.98;74.20;99764.69;5138073;27;20041;-64
2023/08/17 03:41:26;;;;;;;12.23;6.95;;;;;;;22.93;74.83;99778.09;5139007;27;20228;-64
2023/08/17 03:43:51;;;;;;;9.57;5.82;;;;;;;22.96;74.38;99782.22;5138983;27;20049;-65
2023/08/17 03:46:17;;;;;;;7.25;5.85;;;;;;;22.91;74.75;99782.94;5138946;27;20037;-64
2023/08/17 03:48:42;;;;;;;9.90;6.28;;;;;;;22.95;74.46;99785.97;5139107;27;20255;-64
2023/08/17 03:51:07;;;;;;;11.13;5.95;;;;;;;22.85;74.48;99781.16;5138867;27;20337;-65
2023/08/17 03:53:33;;;;;;;10.68;5.75;;;;;;;22.86;74.83;99785.50;5139281;27;20039;-65
2023/08/17 03:55:59;;;;;;;9.93;6.00;;;;;;;22.93;74.52;99791.63;5138617;27;20065;-64
2023/08/17 03:58:26;;;;;;;10.70;5.65;;;;;;;22.95;74.36;99783.28;5138549;27;20054;-64
2023/08/17 04:00:53;;;;;;;15.48;6.65;;;;;;;22.96;74.30;99788.44;5138526;27;20088;-65
2023/08/17 04:03:21;;;;;;;11.38;6.15;;;;;;;23.00;74.28;99783.38;5139114;27;20039;-64
2023/08/17 04:05:46;;;;;;;12.15;6.13;;;;;;;23.05;73.88;99786.16;5138418;27;20031;-65
2023/08/17 04:08:12;;;;;;;9.45;6.10;;;;;;;23.01;73.82;99793.09;5137836;27;20212;-65
2023/08/17 04:10:38;;;;;;;10.38;6.15;;;;;;;22.99;73.25;99779.03;5138226;27;20332;-64
2023/08/17 04:13:04;;;;;;;9.23;5.68;;;;;;;22.92;73.27;99787.28;5138774;27;20126;-64
2023/08/17 04:15:30;;;;;;;7.53;5.50;;;;;;;22.88;73.22;99783.38;5140388;27;20031;-64
2023/08/17 04:17:55;;;;;;;12.15;5.65;;;;;;;22.90;73.35;99787.50;5141851;27;20375;-64
2023/08/17 04:20:22;;;;;;;8.45;6.13;;;;;;;22.98;73.46;99783.59;5142334;27;20042;-64
2023/08/17 04:22:48;;;;;;;7.05;5.72;;;;;;;23.07;73.54;99776.75;5141989;27;20042;-64
2023/08/17 04:25:13;;;;;;;10.43;6.18;;;;;;;23.13;73.73;99780.34;5142577;27;20035;-64
2023/08/17 04:27:39;;;;;;;11.35;5.72;;;;;;;23.22;73.99;99773.50;5142574;27;20031;-64
2023/08/17 04:30:05;;;;;;;10.35;6.32;;;;;;;23.21;74.50;99775.38;5142238;27;20042;-65
2023/08/17 04:32:30;;;;;;;10.18;6.45;;;;;;;23.18;75.29;99785.84;5142027;27;20371;-64
2023/08/17 04:34:56;;;;;;;10.57;6.35;;;;;;;23.20;75.70;99778.31;5141209;27;20324;-65
2023/08/17 04:37:21;;;;;;;11.52;6.70;;;;;;;23.27;76.04;99778.16;5141748;27;20043;-65
2023/08/17 04:39:48;;;;;;;10.45;5.90;;;;;;;23.05;76.55;99778.88;5141946;27;20193;-64
2023/08/17 04:42:14;;;;;;;15.93;6.70;;;;;;;23.25;76.52;99776.53;5141556;27;20039;-65
2023/08/17 04:44:40;;;;;;;19.17;8.00;;;;;;;23.36;76.16;99780.22;5141868;27;20035;-65
2023/08/17 04:47:05;;;;;;;12.25;6.95;;;;;;;23.42;75.82;99783.84;5141128;27;20340;-65
2023/08/17 04:49:31;;;;;;;18.35;7.03;;;;;;;23.47;75.81;99779.31;5142079;27;20041;-65
2023/08/17 04:51:56;;;;;;;10.77;5.97;;;;;;;23.65;75.54;99791.00;5142110;27;20200;-65
2023/08/17 04:54:22;;;;;;;10.23;6.30;;;;;;;23.74;75.18;99784.91;5141651;27;20049;-65
2023/08/17 04:56:47;;;;;;;11.02;6.35;;;;;;;23.88;74.87;99788.91;5141650;27;20058;-65
2023/08/17 04:59:12;;;;;;;12.52;6.90;;;;;;;24.06;74.56;99787.03;5141428;27;20043;-64
2023/08/17 05:01:38;;;;;;;10.02;5.88;;;;;;;24.26;73.69;99794.63;5141849;27;20042;-65
2023/08/17 05:04:04;;;;;;;17.55;7.47;;;;;;;24.49;72.91;99791.69;5141565;27;20186;-65
2023/08/17 05:06:30;;;;;;;11.07;5.55;;;;;;;24.62;71.91;99791.31;5141014;27;20245;-65
2023/08/17 05:08:56;;;;;;;7.57;5.57;;;;;;;24.74;71.65;99788.47;5141398;27;20046;-64
2023/08/17 05:11:22;;;;;;;13.85;5.95;;;;;;;24.87;70.56;99789.97;5141187;27;20031;-65
2023/08/17 05:13:47;;;;;;;18.65;7.20;;;;;;;24.95;70.25;99781.38;5141296;27;20320;-65
2023/08/17 05:16:12;;;;;;;30.05;9.05;;;;;;;25.03;69.78;99789.94;5141017;27;20039;-65
2023/08/17 05:18:38;;;;;;;21.27;7.38;;;;;;;25.16;69.09;99796.84;5140834;27;20061;-65
2023/08/17 05:21:04;;;;;;;17.60;6.72;;;;;;;25.24;68.97;99795.53;5141227;27;20094;-65
2023/08/17 05:23:29;;;;;;;9.68;5.32;;;;;;;25.38;67.77;99794.06;5141204;27;20039;-65
2023/08/17 05:25:55;;;;;;;6.57;5.57;;;;;;;25.54;67.40;99790.38;5140997;27;20217;-65
2023/08/17 05:28:20;;;;;;;8.40;5.50;;;;;;;25.70;66.83;99794.88;5141312;27;20027;-64
2023/08/17 05:30:46;;;;;;;9.23;5.25;;;;;;;25.83;65.32;99790.09;5141382;27;20027;-65
2023/08/17 05:33:12;;;;;;;9.73;5.38;;;;;;;25.93;64.82;99790.16;5141131;27;20090;-64
2023/08/17 05:35:37;;;;;;;6.22;4.95;;;;;;;26.01;63.28;99789.69;5140885;27;20031;-65
2023/08/17 05:38:03;;;;;;;6.38;5.00;;;;;;;26.08;63.25;99790.28;5140197;27;20053;-65
2023/08/17 05:40:30;;;;;;;10.88;4.65;;;;;;;26.28;61.94;99787.69;5141186;27;20122;-64
2023/08/17 05:42:56;;;;;;;5.68;5.07;;;;;;;26.39;61.49;99789.38;5140425;27;20051;-66
2023/08/17 05:45:22;;;;;;;9.63;5.38;;;;;;;26.62;60.26;99790.03;5141064;27;20035;-65
2023/08/17 05:47:47;;;;;;;11.75;6.35;;;;;;;26.75;59.20;99792.25;5140403;27;20039;-65
2023/08/17 05:50:12;;;;;;;18.33;7.28;;;;;;;26.78;59.29;99791.72;5140476;27;20766;-65
2023/08/17 05:52:38;;;;;;;12.73;7.22;;;;;;;26.79;58.92;99787.91;5140299;27;20035;-65
2023/08/17 05:55:04;;;;;;;12.43;7.00;;;;;;;26.95;58.88;99786.84;5140354;27;20035;-65
2023/08/17 05:57:29;;;;;;;10.35;6.28;;;;;;;27.08;58.47;99784.78;5140497;27;20050;-64
2023/08/17 05:59:54;;;;;;;14.40;6.25;;;;;;;27.19;58.47;99786.41;5140439;27;20043;-64
2023/08/17 06:02:20;;;;;;;11.25;5.20;;;;;;;27.32;58.56;99789.41;5140616;27;20043;-65
2023/08/17 06:04:47;;;;;;;15.38;6.07;;;;;;;27.58;57.73;99779.34;5140453;27;20106;-64
2023/08/17 06:07:12;;;;;;;9.27;5.18;;;;;;;27.78;56.34;99786.72;5139611;27;20462;-64
2023/08/17 06:09:38;;;;;;;12.70;5.50;;;;;;;27.99;56.02;99782.88;5140276;27;20037;-65
2023/08/17 06:12:04;;;;;;;7.95;5.40;;;;;;;28.06;55.65;99777.13;5140018;27;20047;-64
2023/08/17 06:14:29;;;;;;;9.50;4.93;;;;;;;28.23;54.68;99779.59;5139483;27;20034;-64
2023/08/17 06:16:55;;;;;;;7.30;4.88;;;;;;;28.35;53.83;99777.38;5139937;27;20043;-64
2023/08/17 06:19:20;;;;;;;10.13;4.90;;;;;;;28.46;53.66;99780.88;5139452;27;20080;-64
2023/08/17 06:21:45;;;;;;;10.70;4.72;;;;;;;28.54;53.06;99781.09;5121119;27;20043;-65
2023/08/17 06:36:16;;;;;;;7.82;4.80;;;;;;;29.65;48.97;99770.63;5156348;27;20657;-69
2023/08/17 06:38:42;;;;;;;7.80;5.07;;;;;;;29.62;49.78;99776.66;5156433;27;20102;-68
2023/08/17 06:41:07;;;;;;;6.82;4.53;;;;;;;29.58;49.64;99785.69;5156152;27;20055;-68
2023/08/17 06:43:33;;;;;;;5.95;4.03;;;;;;;29.72;48.72;99776.56;5156556;27;20027;-68
2023/08/17 06:46:00;;;;;;;7.93;4.40;;;;;;;29.72;48.47;99781.19;5156616;27;20221;-68
2023/08/17 06:48:25;;;;;;;7.05;4.22;;;;;;;29.80;48.93;99781.38;5156953;27;20098;-69
2023/08/17 06:50:51;;;;;;;7.65;4.57;;;;;;;29.88;48.97;99780.75;5156411;27;20052;-69
2023/08/17 06:53:16;;;;;;;6.05;3.63;;;;;;;30.05;48.55;99787.72;5157056;27;20319;-69
2023/08/17 06:55:41;;;;;;;6.97;4.20;;;;;;;30.10;49.43;99780.28;5155899;27;20339;-68
2023/08/17 06:58:07;;;;;;;8.77;4.13;;;;;;;30.29;47.99;99776.81;5156204;27;20051;-68
2023/08/17 07:00:33;;;;;;;8.38;4.43;;;;;;;30.33;47.77;99786.06;5156201;27;20215;-68
2023/08/17 07:02:59;;;;;;;7.47;4.03;;;;;;;30.33;45.95;99772.41;5155918;27;20039;-70
2023/08/17 07:05:24;;;;;;;6.88;4.03;;;;;;;30.43;46.46;99772.28;5155886;27;20046;-68
2023/08/17 07:07:50;;;;;;;6.75;4.82;;;;;;;30.32;44.44;99768.88;5156439;27;20299;-69
2023/08/17 07:10:15;;;;;;;7.50;4.32;;;;;;;30.46;43.19;99777.97;5155871;27;20083;-69
2023/08/17 07:12:40;;;;;;;7.72;3.85;;;;;;;30.58;44.24;99771.28;5156005;27;20047;-68
2023/08/17 07:15:07;;;;;;;6.85;4.03;;;;;;;30.52;44.88;99776.00;5156372;27;20049;-68
2023/08/17 07:17:34;;;;;;;7.00;4.40;;;;;;;30.69;43.54;99778.25;5156168;27;20101;-68
2023/08/17 07:19:59;;;;;;;4.38;3.60;;;;;;;30.91;43.47;99773.03;5156355;27;20035;-69
2023/08/17 07:22:25;;;;;;;4.47;3.38;;;;;;;30.88;42.18;99770.88;5156753;27;20324;-69
2023/08/17 07:24:50;;;;;;;4.82;3.25;;;;;;;30.97;39.52;99771.84;5155012;27;20047;-69
2023/08/17 07:27:16;;;;;;;4.75;3.40;;;;;;;31.14;40.72;99763.09;5155619;27;20031;-69
2023/08/17 07:29:41;;;;;;;6.40;3.60;;;;;;;31.43;40.58;99777.47;5155291;27;20132;-68
2023/08/17 07:32:07;;;;;;;5.93;3.47;;;;;;;31.38;39.24;99766.59;5155485;27;20034;-69
2023/08/17 07:34:32;;;;;;;7.57;3.45;;;;;;;31.45;39.23;99768.97;5155149;27;20328;-68
2023/08/17 07:36:58;;;;;;;4.57;3.60;;;;;;;31.52;39.20;99758.44;5143008;27;20038;-69
2023/08/17 07:39:24;;;;;;;5.10;3.65;;;;;;;31.61;40.07;99764.84;5142547;27;20043;-69
2023/08/17 07:41:49;;;;;;;5.07;3.60;;;;;;;31.65;38.90;99760.41;5141970;27;20321;-68
2023/08/17 07:44:14;;;;;;;6.50;3.25;;;;;;;31.74;38.87;99769.56;5141712;27;20057;-69
2023/08/17 07:46:40;;;;;;;4.40;3.15;;;;;;;31.72;37.84;99765.50;5142069;27;20027;-69
2023/08/17 07:49:06;;;;;;;6.25;3.38;;;;;;;31.90;36.78;99763.81;5141912;27;20070;-69
2023/08/17 07:51:33;;;;;;;7.85;3.97;;;;;;;31.91;37.19;99755.28;5142158;27;20043;-68
2023/08/17 07:54:00;;;;;;;4.43;3.20;;;;;;;31.95;36.02;99759.06;5141367;27;20063;-68
2023/08/17 07:56:25;;;;;;;5.30;4.75;;;;;;;32.06;36.49;99755.00;5141691;27;20027;-69
2023/08/17 07:58:51;;;;;;;5.60;2.97;;;;;;;31.98;36.16;99761.19;5141455;27;20208;-68
2023/08/17 08:01:16;;;;;;;3.63;3.20;;;;;;;32.22;35.02;99754.69;5141356;27;20047;-68
2023/08/17 08:03:41;;;;;;;34.25;8.50;;;;;;;32.40;35.80;99753.03;5141498;27;20039;-67
2023/08/17 08:06:07;;;;;;;5.22;3.40;;;;;;;32.57;35.32;99755.94;5141373;27;20045;-67
2023/08/17 08:08:32;;;;;;;4.93;3.88;;;;;;;32.70;35.90;99752.34;5141332;27;20425;-67
2023/08/17 08:10:58;;;;;;;5.53;3.83;;;;;;;32.84;34.43;99741.38;5140443;27;20035;-69
2023/08/17 08:13:24;;;;;;;6.40;3.17;;;;;;;32.91;33.71;99739.00;5141201;27;20043;-68
2023/08/17 08:15:49;;;;;;;11.60;5.55;;;;;;;33.09;34.92;99745.44;5140631;27;20051;-68
2023/08/17 08:18:15;;;;;;;5.05;4.05;;;;;;;33.05;34.83;99741.72;5140587;27;20026;-69
2023/08/17 08:20:40;;;;;;;21.13;6.53;;;;;;;33.09;33.43;99737.22;5140166;27;20050;-69
2023/08/17 08:23:06;;;;;;;4.05;3.13;;;;;;;33.04;34.66;99740.91;5141190;27;20267;-68
2023/08/17 08:25:31;;;;;;;7.03;3.25;;;;;;;33.21;33.87;99732.78;5140024;27;20047;-69
2023/08/17 08:27:56;;;;;;;7.03;3.17;;;;;;;33.20;33.03;99736.66;5141105;27;20035;-68
2023/08/17 08:30:22;;;;;;;6.68;4.00;;;;;;;33.18;33.41;99738.09;5141245;27;20031;-67
2023/08/17 08:32:48;;;;;;;3.33;2.80;;;;;;;32.98;32.83;99729.25;5140585;27;20031;-65
2023/08/17 08:35:13;;;;;;;6.18;3.58;;;;;;;32.76;33.21;99729.19;5140021;27;20579;-68
2023/08/17 08:37:38;;;;;;;3.78;3.03;;;;;;;32.55;34.01;99728.03;5140386;27;20347;-68
2023/08/17 08:40:10;;;;;;;3.90;2.90;;;;;;;32.68;34.27;99727.97;5140248;27;20035;-68
2023/08/17 08:42:36;;;;;;;6.05;2.90;;;;;;;32.72;33.24;99727.38;5140493;27;20031;-69
2023/08/17 08:45:01;;;;;;;6.32;2.63;;;;;;;32.83;33.54;99728.78;5139806;27;20088;-69
2023/08/17 08:47:29;;;;;;;3.00;2.50;;;;;;;32.96;32.94;99712.28;5139741;27;20321;-68
2023/08/17 08:50:01;;;;;;;6.50;2.80;;;;;;;33.04;34.20;99709.91;5140210;27;20062;-69
2023/08/17 08:52:35;;;;;;;5.50;3.00;;;;;;;33.08;33.47;99706.22;5141324;27;20023;-65
2023/08/17 08:55:10;;;;;;;4.18;2.80;;;;;;;33.26;34.25;99707.16;5139515;27;20339;-65
2023/08/17 08:57:36;;;;;;;4.95;2.60;;;;;;;33.40;33.76;99704.41;5139798;27;20059;-67
2023/08/17 09:00:03;;;;;;;5.65;2.53;;;;;;;33.47;33.49;99699.28;5139728;27;20300;-66
2023/08/17 09:02:29;;;;;;;5.50;2.80;;;;;;;33.60;33.33;99693.69;5140312;27;20293;-66
2023/08/17 09:04:55;;;;;;;6.50;2.75;;;;;;;33.64;32.75;99700.16;5140748;27;20047;-65
2023/08/17 09:07:22;;;;;;;4.95;2.45;;;;;;;33.41;32.51;99701.34;5140762;27;20042;-66
2023/08/17 09:09:48;;;;;;;6.78;2.90;;;;;;;33.44;34.17;99688.91;5140233;27;20034;-66
2023/08/17 09:12:13;;;;;;;6.53;2.92;;;;;;;33.44;33.31;99695.22;5140778;27;20212;-69
2023/08/17 09:14:40;;;;;;;4.20;2.58;;;;;;;33.11;33.20;99693.81;5140451;27;20225;-69
2023/08/17 09:17:06;;;;;;;3.22;2.47;;;;;;;32.84;33.35;99692.81;5140735;27;20102;-68
2023/08/17 09:19:33;;;;;;;4.63;2.35;;;;;;;32.89;33.48;99683.66;5140087;27;20333;-68
2023/08/17 09:22:01;;;;;;;3.83;2.92;;;;;;;32.56;34.16;99685.78;5140831;27;20039;-68
2023/08/17 09:24:36;;;;;;;4.47;3.20;;;;;;;32.33;34.44;99688.47;5139387;27;20346;-70
2023/08/17 09:27:02;;;;;;;5.65;2.13;;;;;;;32.13;34.24;99691.59;5140765;27;20035;-68
2023/08/17 09:29:31;;;;;;;4.43;2.70;;;;;;;32.01;34.72;99699.50;5140345;27;20296;-69
2023/08/17 09:31:57;;;;;;;6.13;2.70;;;;;;;31.91;35.28;99689.56;5140394;27;20035;-68
2023/08/17 09:34:22;;;;;;;3.30;2.92;;;;;;;31.96;35.15;99694.94;5139301;27;20391;-68
2023/08/17 09:36:48;;;;;;;3.88;2.50;;;;;;;31.99;35.48;99694.34;5139117;27;20038;-68
2023/08/17 09:39:16;;;;;;;4.75;2.72;;;;;;;31.91;35.21;99696.97;5138905;27;20041;-68
2023/08/17 09:41:41;;;;;;;15.00;4.10;;;;;;;31.93;34.95;99692.81;5138991;27;20038;-67
2023/08/17 09:44:07;;;;;;;3.13;2.83;;;;;;;31.90;35.50;99678.94;5138507;27;20039;-68
2023/08/17 09:46:33;;;;;;;5.65;2.50;;;;;;;31.76;35.12;99684.41;5139472;27;20106;-67
2023/08/17 09:48:58;;;;;;;4.85;2.80;;;;;;;31.66;35.69;99690.03;5138905;27;20047;-68
2023/08/17 09:51:24;;;;;;;2.95;2.58;;;;;;;31.78;36.09;99676.69;5138583;27;20076;-68
2023/08/17 09:53:53;;;;;;;3.58;2.70;;;;;;;31.74;35.53;99686.63;5138487;27;20316;-67
2023/08/17 09:56:23;;;;;;;3.42;2.60;;;;;;;31.75;35.35;99675.38;5139126;27;20321;-67
2023/08/17 09:58:49;;;;;;;5.78;2.90;;;;;;;31.85;35.37;99673.56;5139923;27;20051;-68
2023/08/17 10:01:15;;;;;;;5.22;3.03;;;;;;;31.85;36.38;99674.38;5140108;27;20095;-68
2023/08/17 10:03:49;;;;;;;4.57;2.90;;;;;;;31.89;35.10;99663.59;5139107;27;20067;-68
2023/08/17 10:06:20;;;;;;;4.00;2.63;;;;;;;31.85;35.09;99660.66;5139145;27;20046;-68
2023/08/17 10:08:48;;;;;;;5.30;2.90;;;;;;;31.77;35.03;99661.38;5139513;27;20281;-68
2023/08/17 10:11:21;;;;;;;4.07;2.92;;;;;;;31.76;35.42;99662.50;5139704;27;20031;-68
2023/08/17 10:14:10;;;;;;;6.43;2.58;;;;;;;31.73;35.50;99663.09;5139155;27;20064;-67
2023/08/17 10:16:46;;;;;;;4.60;2.42;;;;;;;31.71;35.24;99660.66;5139520;27;20042;-68
2023/08/17 10:19:33;;;;;;;3.75;2.47;;;;;;;31.56;35.12;99657.38;5138421;27;20031;-67
2023/08/17 10:22:29;;;;;;;4.57;2.50;;;;;;;31.63;34.49;99646.84;5138318;27;20043;-67
2023/08/17 10:24:57;;;;;;;3.55;2.80;;;;;;;31.59;34.56;99640.34;5138528;27;20201;-67
2023/08/17 10:27:22;;;;;;;4.03;3.03;;;;;;;31.68;34.70;99644.00;5139391;27;20035;-69
2023/08/17 10:29:50;;;;;;;3.72;2.58;;;;;;;31.69;35.07;99640.16;5139620;27;20190;-68
2023/08/17 10:32:16;;;;;;;2.83;2.58;;;;;;;31.77;35.84;99639.47;5139674;27;20038;-68
2023/08/17 10:34:41;;;;;;;3.05;2.45;;;;;;;31.74;32.46;99642.81;5138887;27;20248;-69
2023/08/17 10:37:07;;;;;;;2.65;2.35;;;;;;;31.88;32.51;99629.13;5139266;27;20027;-69
2023/08/17 10:39:34;;;;;;;3.10;2.60;;;;;;;31.91;33.33;99634.81;5139476;27;20046;-68
2023/08/17 10:42:00;;;;;;;6.20;2.83;;;;;;;31.89;32.98;99637.03;5138718;27;20371;-68
2023/08/17 10:44:44;;;;;;;2.90;2.40;;;;;;;31.96;33.55;99633.88;5138420;27;20039;-68
2023/08/17 10:47:23;;;;;;;4.22;2.45;;;;;;;32.05;32.97;99616.44;5138643;27;20102;-68
2023/08/17 10:49:56;;;;;;;3.00;2.28;;;;;;;32.00;31.70;99623.94;5138508;27;20245;-68
2023/08/17 10:52:30;;;;;;;;;;;;;;;31.96;32.07;99620.19;5139588;27;20031;-68
2023/08/17 10:54:56;;;;;;;2.42;2.10;;;;;;;31.99;31.66;99620.41;5138899;27;20128;-69
2023/08/17 10:57:27;;;;;;;3.95;2.58;;;;;;;31.90;31.92;99619.50;5138975;27;20023;-68
2023/08/17 11:00:07;;;;;;;53.03;23.95;;;;;;;32.00;31.65;99611.06;5139214;27;20339;-68
2023/08/17 11:02:33;;;;;;;2.53;2.20;;;;;;;32.04;31.06;99608.53;5138899;27;20038;-68
2023/08/17 11:05:00;;;;;;;3.50;2.22;;;;;;;32.12;31.91;99606.97;5139024;27;20066;-67
2023/08/17 11:07:28;;;;;;;3.85;2.33;;;;;;;32.20;31.42;99601.59;5139184;27;20047;-68
2023/08/17 11:09:54;;;;;;;2.88;2.40;;;;;;;32.19;31.52;99608.19;5138707;27;20039;-68
2023/08/17 11:12:26;;;;;;;27.30;13.10;;;;;;;32.26;32.02;99585.91;5142400;27;20224;-69
2023/08/17 11:14:52;;;;;;;21.65;10.50;;;;;;;32.40;31.30;99594.88;5142859;27;20083;-69
2023/08/17 11:17:20;;;;;;;5.40;3.22;;;;;;;32.53;32.85;99583.06;5142545;27;20039;-68
2023/08/17 11:19:46;;;;;;;2.60;2.38;;;;;;;32.50;30.68;99586.41;5141562;27;20038;-68
2023/08/17 11:22:12;;;;;;;3.38;2.40;;;;;;;32.54;30.79;99584.69;5142299;27;20023;-68
2023/08/17 11:24:40;;;;;;;2.90;2.30;;;;;;;32.56;30.39;99578.88;5141762;27;20039;-69
2023/08/17 11:27:05;;;;;;;3.28;2.35;;;;;;;32.48;30.40;99585.91;5141439;27;20050;-68
2023/08/17 11:29:32;;;;;;;2.92;2.08;;;;;;;32.44;28.78;99582.19;5142144;27;20054;-68
2023/08/17 11:31:58;;;;;;;4.57;2.58;;;;;;;32.38;29.22;99578.75;5142338;27;20098;-68
2023/08/17 11:46:02;;;;;;;3.15;2.45;;;;;;;33.12;28.27;99558.28;5155881;27;20684;-68
2023/08/17 11:48:28;;;;;;;2.85;2.38;;;;;;;33.08;28.46;99560.03;5155898;27;20034;-68
2023/08/17 11:50:58;;;;;;;3.45;2.40;;;;;;;33.05;28.44;99556.00;5156200;27;20377;-68
2023/08/17 11:53:23;;;;;;;3.75;2.38;;;;;;;33.01;27.73;99550.31;5156119;27;20050;-69